Time;durP1;ratioP1;P1;durP2;ratioP2;P2;SDS_P1;SDS_P2;PMS_P1;PMS_P2;Temp;Humidity;BMP_temperature;BMP_pressure;BME280_temperature;BME280_humidity;BME280_pressure;Samples;Min_cycle;Max_cycle;Signal;HPM_P1;HPM_P2
2022/01/21 00:03:34;;;;;;;1.90;0.90;;;11.90;48.10;;;;;;215758;1293;24342;-55
2022/01/21 00:08:41;;;;;;;2.00;0.80;;;11.80;48.00;;;;;;215650;1293;25381;-57
2022/01/21 00:13:45;;;;;;;4.80;1.30;;;11.80;48.50;;;;;;215632;1293;25512;-55
2022/01/21 00:19:06;;;;;;;2.80;1.00;;;11.80;48.50;;;;;;215602;1293;25522;-57
2022/01/21 00:34:55;;;;;;;2.50;0.90;;;11.80;48.00;;;;;;215646;1293;22591;-57
2022/01/21 00:40:00;;;;;;;2.70;1.10;;;11.80;48.00;;;;;;215687;1293;24790;-55
2022/01/21 00:45:10;;;;;;;3.80;1.30;;;11.80;48.10;;;;;;215701;1293;22578;-55
2022/01/21 00:50:14;;;;;;;2.60;1.20;;;11.80;48.00;;;;;;215772;1292;24328;-57
2022/01/21 00:55:18;;;;;;;2.40;0.90;;;11.80;48.00;;;;;;215699;1293;22585;-55
2022/01/21 01:00:22;;;;;;;2.30;0.80;;;11.70;48.00;;;;;;215598;1293;24428;-57
2022/01/21 01:05:26;;;;;;;4.10;1.10;;;11.70;48.00;;;;;;215768;1293;22592;-57
2022/01/21 01:11:21;;;;;;;2.40;1.00;;;11.70;48.10;;;;;;215601;1292;26556;-58
2022/01/21 01:21:21;;;;;;;2.30;1.00;;;11.70;48.00;;;;;;215401;1293;22564;-55
2022/01/21 01:31:48;;;;;;;2.10;0.80;;;11.70;48.30;;;;;;215498;1293;22596;-56
2022/01/21 01:36:57;;;;;;;2.60;1.00;;;11.70;48.00;;;;;;215776;1293;26548;-56
2022/01/21 01:52:33;;;;;;;2.80;1.00;;;11.70;48.00;;;;;;215540;1293;24562;-56
2022/01/21 01:57:37;;;;;;;2.30;1.10;;;11.60;48.00;;;;;;215723;1293;22595;-55
2022/01/21 02:02:40;;;;;;;2.60;1.20;;;11.60;48.00;;;;;;215553;1293;24365;-55
2022/01/21 02:07:46;;;;;;;2.90;1.20;;;11.70;48.00;;;;;;215772;1293;22569;-53
2022/01/21 02:12:50;;;;;;;2.30;0.90;;;11.60;47.90;;;;;;215606;1293;24300;-55
2022/01/21 02:23:15;;;;;;;;;;;11.60;47.90;;;;;;215612;1293;24357;-56
2022/01/21 02:28:19;;;;;;;1.90;0.90;;;11.60;48.00;;;;;;215563;1293;24435;-57
2022/01/21 02:33:26;;;;;;;2.80;0.90;;;11.60;48.00;;;;;;215681;1293;22585;-56
2022/01/21 02:38:32;;;;;;;2.70;0.90;;;11.60;48.00;;;;;;215631;1293;22673;-56
2022/01/21 02:43:35;;;;;;;2.90;1.00;;;11.60;47.90;;;;;;215559;1293;24018;-54
2022/01/21 02:48:39;;;;;;;3.50;1.10;;;11.60;48.20;;;;;;215773;1293;22585;-56
2022/01/21 02:58:51;;;;;;;2.30;0.80;;;11.60;47.90;;;;;;215619;1293;22592;-54
2022/01/21 03:03:58;;;;;;;2.50;0.90;;;11.50;48.40;;;;;;215617;1293;26534;-57
2022/01/21 03:09:10;;;;;;;2.70;1.20;;;11.50;47.30;;;;;;215955;1293;22601;-56
2022/01/21 03:14:16;;;;;;;3.70;1.00;;;11.60;47.90;;;;;;215753;1293;22587;-54
2022/01/21 03:19:26;;;;;;;2.90;1.50;;;11.60;47.90;;;;;;215631;1293;25331;-55
2022/01/21 03:24:38;;;;;;;3.10;0.80;;;11.60;47.70;;;;;;215624;1293;22738;-57
2022/01/21 03:29:47;;;;;;;;;;;11.50;47.90;;;;;;215790;1293;23397;-57
2022/01/21 03:34:51;;;;;;;2.20;1.00;;;11.60;47.90;;;;;;215757;1293;27611;-56
2022/01/21 03:39:58;;;;;;;2.60;1.00;;;11.60;47.90;;;;;;216065;1293;22863;-54
2022/01/21 03:45:07;;;;;;;2.90;1.00;;;11.50;48.00;;;;;;216187;1292;22656;-54
2022/01/21 03:50:31;;;;;;;2.20;0.90;;;11.40;48.00;;;;;;215720;1293;23064;-55
2022/01/21 03:55:37;;;;;;;2.30;0.90;;;11.50;48.00;;;;;;215940;1293;25547;-57
2022/01/21 04:00:45;;;;;;;1.80;0.80;;;11.50;48.20;;;;;;215607;1293;22633;-57
2022/01/21 04:05:50;;;;;;;1.80;0.90;;;11.50;48.10;;;;;;215775;1293;23018;-55
2022/01/21 04:10:54;;;;;;;1.80;0.70;;;11.50;47.90;;;;;;215771;1293;23016;-53
2022/01/21 04:16:03;;;;;;;2.30;1.00;;;11.40;47.80;;;;;;215618;1293;22670;-57
2022/01/21 04:21:08;;;;;;;2.70;0.90;;;11.40;48.00;;;;;;215620;1292;25270;-57
2022/01/21 04:26:12;;;;;;;2.90;1.20;;;11.40;48.00;;;;;;215778;1293;22582;-58
2022/01/21 04:31:16;;;;;;;1.80;0.80;;;11.40;48.00;;;;;;215720;1293;24336;-54
2022/01/21 04:36:24;;;;;;;1.70;1.00;;;11.40;47.90;;;;;;215659;1293;22570;-53
2022/01/21 04:52:11;;;;;;;2.10;1.20;;;11.40;48.40;;;;;;215331;1293;22620;-52
2022/01/21 04:57:22;;;;;;;2.20;1.00;;;11.30;48.10;;;;;;215642;1293;24312;-56
2022/01/21 05:02:28;;;;;;;2.50;0.90;;;11.30;48.30;;;;;;215806;1293;22587;-54
2022/01/21 05:07:36;;;;;;;2.00;0.70;;;11.40;47.90;;;;;;215689;1293;22586;-55
2022/01/21 05:12:40;;;;;;;2.20;0.70;;;11.40;48.00;;;;;;215781;1293;22593;-55
2022/01/21 05:17:49;;;;;;;2.70;0.80;;;11.30;48.00;;;;;;215574;1293;24527;-55
2022/01/21 05:23:02;;;;;;;2.60;0.90;;;11.30;48.00;;;;;;215739;1293;22614;-53
2022/01/21 05:28:11;;;;;;;1.70;0.80;;;11.30;48.00;;;;;;215874;1294;24839;-54
2022/01/21 05:39:21;;;;;;;3.30;1.00;;;11.30;48.00;;;;;;215206;1293;22610;-58
2022/01/21 05:49:46;;;;;;;1.40;0.70;;;11.20;48.00;;;;;;215639;1293;25315;-54
2022/01/21 05:55:11;;;;;;;1.80;0.70;;;11.20;48.00;;;;;;215502;1293;183227;-56
2022/01/21 06:00:23;;;;;;;2.50;1.00;;;11.20;48.00;;;;;;215745;1293;25360;-57
2022/01/21 06:05:32;;;;;;;2.10;1.00;;;11.30;48.00;;;;;;215963;1294;25343;-57
2022/01/21 06:10:36;;;;;;;2.90;0.70;;;11.20;48.00;;;;;;215596;1293;25327;-54
2022/01/21 06:15:39;;;;;;;2.30;0.90;;;11.20;48.00;;;;;;215402;1294;22580;-57
2022/01/21 06:20:43;;;;;;;2.20;0.70;;;11.20;48.10;;;;;;215584;1294;22608;-56
2022/01/21 06:25:47;;;;;;;2.10;0.70;;;11.20;48.10;;;;;;215860;1293;22573;-56
2022/01/21 06:30:51;;;;;;;3.40;1.50;;;11.20;47.90;;;;;;215836;1293;24311;-54
2022/01/21 06:35:54;;;;;;;2.70;1.10;;;11.20;48.30;;;;;;215756;1294;25416;-56
2022/01/21 06:40:58;;;;;;;2.50;1.20;;;11.20;48.00;;;;;;215690;1294;24385;-53
2022/01/21 06:46:07;;;;;;;2.10;0.70;;;11.20;48.00;;;;;;215680;1293;22589;-57
2022/01/21 06:51:11;;;;;;;2.80;0.70;;;11.10;47.90;;;;;;215560;1293;25489;-54
2022/01/21 06:56:21;;;;;;;2.60;0.90;;;11.10;47.90;;;;;;215717;1293;26593;-57
2022/01/21 07:01:25;;;;;;;1.90;0.80;;;11.20;48.20;;;;;;215730;1293;22701;-56
2022/01/21 07:06:29;;;;;;;1.90;0.70;;;11.10;48.00;;;;;;215783;1294;25469;-55
2022/01/21 07:11:34;;;;;;;2.80;1.00;;;11.10;48.30;;;;;;215708;1293;25511;-56
2022/01/21 07:16:37;;;;;;;2.40;0.90;;;11.20;48.20;;;;;;215546;1294;22588;-57
2022/01/21 07:21:41;;;;;;;3.20;1.00;;;11.20;47.80;;;;;;215720;1293;23049;-56
2022/01/21 07:26:45;;;;;;;2.60;0.70;;;11.10;47.90;;;;;;215713;1293;22601;-53
2022/01/21 07:31:54;;;;;;;1.60;0.70;;;11.20;47.80;;;;;;215608;1293;24533;-60
2022/01/21 07:37:03;;;;;;;2.60;1.00;;;11.10;48.00;;;;;;215742;1293;25390;-58
2022/01/21 07:42:07;;;;;;;1.40;0.60;;;11.20;48.20;;;;;;215803;1293;25382;-54
2022/01/21 07:47:10;;;;;;;1.70;0.70;;;11.10;47.70;;;;;;215812;1293;24298;-57
2022/01/21 07:52:15;;;;;;;2.30;0.90;;;11.10;48.10;;;;;;215812;1293;22570;-53
2022/01/21 07:57:19;;;;;;;1.40;0.60;;;11.20;47.60;;;;;;215629;1293;22773;-54
2022/01/21 08:02:24;;;;;;;1.30;0.70;;;11.30;47.60;;;;;;215879;1296;24390;-56
2022/01/21 08:07:42;;;;;;;1.80;0.80;;;11.30;47.60;;;;;;215750;1293;25311;-56
2022/01/21 08:12:46;;;;;;;2.10;0.80;;;11.30;47.40;;;;;;215446;1293;25555;-53
2022/01/21 08:17:53;;;;;;;1.90;0.80;;;11.40;47.30;;;;;;215488;1293;22647;-56
2022/01/21 08:22:59;;;;;;;2.70;0.90;;;11.40;47.50;;;;;;215907;1293;24269;-55
2022/01/21 08:28:03;;;;;;;2.20;0.70;;;11.30;47.40;;;;;;215649;1293;23171;-54
2022/01/21 08:33:07;;;;;;;1.50;0.70;;;11.30;47.40;;;;;;215690;1293;25168;-57
2022/01/21 08:38:10;;;;;;;1.80;0.80;;;11.30;47.40;;;;;;215774;1293;22761;-53
2022/01/21 08:43:15;;;;;;;2.30;0.80;;;11.30;47.40;;;;;;215877;1293;25413;-55
2022/01/21 08:48:19;;;;;;;2.20;0.70;;;11.30;47.50;;;;;;215611;1293;26545;-54
2022/01/21 08:53:36;;;;;;;2.20;0.70;;;11.40;48.00;;;;;;216065;1293;22573;-57
2022/01/21 08:58:42;;;;;;;2.10;0.80;;;11.40;47.10;;;;;;215790;1293;23247;-54
2022/01/21 09:03:47;;;;;;;1.70;0.70;;;11.40;47.20;;;;;;215810;1293;22559;-56
2022/01/21 09:08:57;;;;;;;3.80;0.60;;;11.40;47.10;;;;;;215884;1293;24304;-55
2022/01/21 09:14:02;;;;;;;2.20;0.90;;;11.40;47.30;;;;;;215807;1293;22614;-55
2022/01/21 09:19:16;;;;;;;1.60;0.60;;;11.50;47.10;;;;;;215983;1293;24281;-54
2022/01/21 09:24:21;;;;;;;1.90;0.80;;;11.50;47.00;;;;;;215932;1293;22672;-56
2022/01/21 09:29:25;;;;;;;2.50;1.00;;;11.60;47.30;;;;;;215928;1293;22573;-53
2022/01/21 09:34:32;;;;;;;1.20;0.60;;;11.60;46.80;;;;;;215701;1293;24363;-58
2022/01/21 09:39:40;;;;;;;2.30;1.00;;;11.70;46.80;;;;;;215592;1293;22577;-56
2022/01/21 09:44:46;;;;;;;2.60;0.90;;;11.70;46.80;;;;;;216101;1293;22592;-56
2022/01/21 09:49:56;;;;;;;2.80;1.30;;;11.70;46.80;;;;;;215811;1293;26715;-56
2022/01/21 09:55:02;;;;;;;1.80;0.70;;;11.80;46.30;;;;;;215833;1293;25491;-57
2022/01/21 10:00:08;;;;;;;1.50;0.60;;;11.80;46.80;;;;;;216384;1293;22594;-56
2022/01/21 10:05:12;;;;;;;1.50;0.80;;;11.90;46.80;;;;;;216248;1293;22727;-54
2022/01/21 10:10:19;;;;;;;1.10;0.70;;;11.90;46.70;;;;;;215931;1293;24024;-56
2022/01/21 10:15:25;;;;;;;2.30;0.80;;;11.90;46.70;;;;;;216164;1293;24242;-56
2022/01/21 10:20:30;;;;;;;6.60;1.00;;;11.80;47.00;;;;;;216083;1293;22666;-56
2022/01/21 10:25:37;;;;;;;3.00;1.40;;;11.80;46.80;;;;;;215944;1293;22593;-54
2022/01/21 10:30:42;;;;;;;1.70;0.70;;;11.80;46.90;;;;;;216252;1293;22634;-52
2022/01/21 10:35:49;;;;;;;2.10;1.00;;;11.80;47.20;;;;;;216025;1293;24596;-57
2022/01/21 10:41:11;;;;;;;1.80;0.60;;;11.80;46.90;;;;;;216243;1293;22595;-52
2022/01/21 10:46:16;;;;;;;2.60;0.80;;;11.80;46.80;;;;;;216194;1293;23201;-57
2022/01/21 10:51:37;;;;;;;1.40;0.70;;;11.90;46.70;;;;;;215973;1293;25294;-55
2022/01/21 10:57:07;;;;;;;1.70;0.60;;;11.90;46.80;;;;;;216348;1293;24297;-58
2022/01/21 11:02:14;;;;;;;1.90;0.70;;;12.00;46.60;;;;;;215844;1293;22706;-58
2022/01/21 11:07:45;;;;;;;2.20;0.90;;;12.00;46.90;;;;;;215919;1292;25507;-58
2022/01/21 11:12:52;;;;;;;2.80;0.90;;;12.00;46.50;;;;;;215706;1292;25377;-55
2022/01/21 11:18:03;;;;;;;3.00;0.90;;;12.10;46.80;;;;;;215916;1293;22557;-57
2022/01/21 11:23:09;;;;;;;0.80;0.50;;;12.10;46.40;;;;;;215995;1293;22649;-55
2022/01/21 11:28:25;;;;;;;1.20;0.60;;;12.20;46.70;;;;;;215805;1293;23068;-57
2022/01/21 11:33:29;;;;;;;2.10;0.80;;;12.20;46.40;;;;;;216065;1293;24357;-55
2022/01/21 11:38:38;;;;;;;3.00;0.90;;;12.10;46.50;;;;;;215870;1293;24341;-55
2022/01/21 11:43:51;;;;;;;;;;;12.10;46.70;;;;;;215957;1292;24441;-54
2022/01/21 11:48:57;;;;;;;2.10;0.90;;;12.10;46.80;;;;;;215930;1293;25458;-55
2022/01/21 11:54:10;;;;;;;1.30;0.60;;;12.10;47.00;;;;;;215594;1293;22597;-54
2022/01/21 11:59:58;;;;;;;3.30;0.70;;;12.10;46.70;;;;;;215536;1293;24310;-57
2022/01/21 12:05:06;;;;;;;1.50;0.70;;;12.00;46.80;;;;;;216209;1293;24359;-54
2022/01/21 12:10:23;;;;;;;2.00;0.80;;;12.00;47.00;;;;;;215720;1293;22730;-53
2022/01/21 12:15:46;;;;;;;2.50;0.90;;;12.00;47.00;;;;;;216154;1293;24424;-55
2022/01/21 12:20:50;;;;;;;2.10;0.60;;;11.90;47.10;;;;;;215921;1293;25358;-56
2022/01/21 12:26:17;;;;;;;1.70;0.60;;;11.80;47.40;;;;;;215704;1293;23267;-54
2022/01/21 12:31:23;;;;;;;2.50;0.70;;;11.80;47.50;;;;;;215620;1293;22584;-56
2022/01/21 12:36:55;;;;;;;2.50;1.00;;;11.80;47.20;;;;;;215888;1292;22621;-56
2022/01/21 12:42:25;;;;;;;2.90;1.10;;;11.80;47.20;;;;;;215859;1292;22816;-55
2022/01/21 12:47:40;;;;;;;1.60;0.70;;;11.80;47.50;;;;;;216006;1293;24424;-54
2022/01/21 12:52:54;;;;;;;2.10;1.00;;;11.80;47.20;;;;;;216022;1293;25480;-54
2022/01/21 12:58:01;;;;;;;2.20;1.00;;;12.00;47.40;;;;;;215671;1293;25410;-55
2022/01/21 13:03:21;;;;;;;1.50;0.70;;;12.00;47.30;;;;;;215780;1293;22584;-57
2022/01/21 13:08:31;;;;;;;1.90;0.80;;;12.00;46.80;;;;;;215652;1293;25467;-57
2022/01/21 13:13:45;;;;;;;1.90;0.80;;;12.00;47.20;;;;;;215659;1293;22592;-56
2022/01/21 13:19:06;;;;;;;2.60;1.10;;;11.90;47.30;;;;;;215542;1293;24053;-55
2022/01/21 13:24:27;;;;;;;;;;;11.90;47.10;;;;;;215563;1293;22579;-56
2022/01/21 13:29:37;;;;;;;1.70;0.70;;;11.90;47.10;;;;;;215587;1293;22599;-55
2022/01/21 13:34:41;;;;;;;2.50;0.90;;;11.90;47.10;;;;;;215460;1293;24275;-57
2022/01/21 13:39:47;;;;;;;3.00;1.20;;;11.80;47.10;;;;;;215679;1293;25378;-55
2022/01/21 13:45:04;;;;;;;2.40;0.80;;;11.80;47.40;;;;;;215892;1293;22642;-56
2022/01/21 13:50:14;;;;;;;1.80;0.70;;;11.90;47.00;;;;;;215769;1293;22570;-54
2022/01/21 13:55:34;;;;;;;3.10;0.80;;;11.90;47.10;;;;;;215773;1293;22664;-55
2022/01/21 14:00:44;;;;;;;2.00;0.90;;;11.90;47.40;;;;;;215633;1293;25421;-57
2022/01/21 14:06:01;;;;;;;2.30;0.90;;;11.80;47.10;;;;;;215774;1293;22627;-57
2022/01/21 14:11:23;;;;;;;2.70;1.10;;;11.80;47.20;;;;;;215613;1293;22596;-57
2022/01/21 14:16:30;;;;;;;2.80;0.90;;;11.70;47.30;;;;;;215521;1293;22577;-55
2022/01/21 14:21:37;;;;;;;1.40;0.60;;;11.80;47.10;;;;;;215613;1293;22579;-55
2022/01/21 14:26:47;;;;;;;1.70;0.80;;;11.80;47.20;;;;;;215759;1293;25287;-57
2022/01/21 14:31:55;;;;;;;2.40;1.10;;;11.70;47.10;;;;;;215611;1293;22641;-58
2022/01/21 14:37:12;;;;;;;2.40;1.00;;;11.80;47.10;;;;;;215789;1292;22605;-57
2022/01/21 14:42:24;;;;;;;2.20;0.90;;;11.70;47.10;;;;;;215893;1293;22598;-55
2022/01/21 14:47:31;;;;;;;2.40;0.90;;;11.70;47.30;;;;;;215849;1293;26577;-56
2022/01/21 14:52:54;;;;;;;2.60;0.90;;;11.70;47.30;;;;;;215961;1293;22612;-56
2022/01/21 14:58:09;;;;;;;;;;;11.60;47.40;;;;;;215820;1293;22570;-56
2022/01/21 15:03:24;;;;;;;2.40;1.10;;;11.70;47.20;;;;;;215931;1293;23216;-56
2022/01/21 15:09:00;;;;;;;2.80;1.00;;;11.70;47.10;;;;;;215806;1293;24263;-57
2022/01/21 15:14:25;;;;;;;3.00;1.10;;;11.70;47.10;;;;;;215763;1293;22606;-60
2022/01/21 15:19:34;;;;;;;2.90;1.40;;;11.70;47.10;;;;;;215985;1293;22656;-56
2022/01/21 15:24:41;;;;;;;2.40;1.00;;;11.70;47.10;;;;;;215874;1293;22601;-54
2022/01/21 15:30:02;;;;;;;2.90;1.10;;;11.70;47.10;;;;;;215922;1293;22595;-52
2022/01/21 15:35:28;;;;;;;3.00;0.90;;;11.60;47.20;;;;;;215719;1293;22797;-57
2022/01/21 15:40:34;;;;;;;4.00;1.40;;;11.70;47.40;;;;;;215928;1293;24297;-57
2022/01/21 15:45:42;;;;;;;2.90;0.90;;;11.60;47.10;;;;;;216079;1293;22703;-56
2022/01/21 15:50:46;;;;;;;2.90;1.20;;;11.60;47.50;;;;;;215781;1293;22576;-57
2022/01/21 15:55:50;;;;;;;3.00;1.10;;;11.70;47.00;;;;;;215838;1293;24599;-55
2022/01/21 16:00:57;;;;;;;3.00;1.20;;;11.60;47.40;;;;;;216048;1293;22592;-56
2022/01/21 16:06:02;;;;;;;2.90;1.40;;;11.60;47.00;;;;;;215651;1293;22608;-55
2022/01/21 16:11:07;;;;;;;2.60;1.20;;;11.60;47.00;;;;;;215803;1293;22849;-55
2022/01/21 16:16:12;;;;;;;2.70;1.10;;;11.60;46.90;;;;;;215482;1296;25496;-57
2022/01/21 16:21:19;;;;;;;2.90;1.30;;;11.60;47.20;;;;;;215649;1293;22601;-56
2022/01/21 16:26:23;;;;;;;2.90;1.30;;;11.60;47.00;;;;;;215839;1293;22588;-55
2022/01/21 16:31:28;;;;;;;2.50;1.00;;;11.60;47.00;;;;;;215667;1293;25387;-57
2022/01/21 16:36:35;;;;;;;3.10;1.30;;;11.60;47.30;;;;;;216151;1293;22592;-58
2022/01/21 16:41:41;;;;;;;2.90;1.20;;;11.60;47.00;;;;;;215958;1293;22574;-58
2022/01/21 16:46:50;;;;;;;4.70;1.20;;;11.60;47.00;;;;;;215792;1293;24291;-56
2022/01/21 16:51:58;;;;;;;2.30;1.00;;;11.60;47.00;;;;;;216135;1292;22677;-56
2022/01/21 16:57:08;;;;;;;3.20;1.00;;;11.50;47.30;;;;;;215760;1293;22804;-56
2022/01/21 17:02:13;;;;;;;2.30;1.10;;;11.60;46.90;;;;;;215917;1293;24431;-53
2022/01/21 17:07:22;;;;;;;2.50;1.10;;;11.50;47.00;;;;;;215904;1293;26813;-54
2022/01/21 17:12:27;;;;;;;4.20;1.20;;;11.50;46.60;;;;;;215793;1293;22613;-54
2022/01/21 17:17:36;;;;;;;3.20;1.30;;;11.50;46.90;;;;;;215358;1293;25459;-56
2022/01/21 17:22:41;;;;;;;2.30;1.10;;;11.50;47.20;;;;;;215873;1293;25314;-55
2022/01/21 17:27:46;;;;;;;3.50;1.40;;;11.50;46.90;;;;;;216167;1293;25217;-56
2022/01/21 17:32:53;;;;;;;2.80;1.10;;;11.50;47.00;;;;;;215533;1293;25351;-55
2022/01/21 17:37:58;;;;;;;4.00;1.40;;;11.40;47.40;;;;;;215882;1292;23897;-56
2022/01/21 17:43:06;;;;;;;3.10;1.40;;;11.40;47.00;;;;;;216053;1293;22706;-54
2022/01/21 17:48:12;;;;;;;2.90;1.10;;;11.40;47.10;;;;;;216052;1293;22812;-55
2022/01/21 17:53:22;;;;;;;2.50;1.10;;;11.40;47.20;;;;;;214900;1293;1278919;-57
2022/01/21 17:58:31;;;;;;;4.00;1.40;;;11.40;47.20;;;;;;216030;1293;24617;-56
2022/01/21 18:03:37;;;;;;;4.00;1.30;;;11.30;47.30;;;;;;216049;1293;24588;-54
2022/01/21 18:08:47;;;;;;;4.10;1.20;;;11.30;47.30;;;;;;216121;1293;25621;-57
2022/01/21 18:13:53;;;;;;;2.90;1.00;;;11.30;47.30;;;;;;216036;1293;22738;-54
2022/01/21 18:19:11;;;;;;;3.30;1.20;;;11.30;47.20;;;;;;215514;1293;25317;-55
2022/01/21 18:24:20;;;;;;;5.20;1.30;;;11.40;47.10;;;;;;215861;1293;24311;-56
2022/01/21 18:29:25;;;;;;;2.30;1.10;;;11.30;47.10;;;;;;216075;1293;22737;-56
2022/01/21 18:34:29;;;;;;;3.20;1.30;;;11.30;47.40;;;;;;216041;1293;22572;-55
2022/01/21 18:39:34;;;;;;;2.30;0.80;;;11.30;47.20;;;;;;216131;1292;23004;-52
2022/01/21 18:44:38;;;;;;;3.80;1.10;;;11.30;47.40;;;;;;215943;1293;23579;-54
2022/01/21 18:49:52;;;;;;;2.50;1.00;;;11.30;47.40;;;;;;215968;1293;24418;-55
2022/01/21 18:54:56;;;;;;;4.60;1.30;;;11.30;47.40;;;;;;215852;1293;24381;-53
2022/01/21 19:00:02;;;;;;;3.10;1.30;;;11.20;47.50;;;;;;216114;1293;22593;-57
2022/01/21 19:05:16;;;;;;;3.80;1.40;;;11.30;47.20;;;;;;216114;1293;22616;-56
2022/01/21 19:10:26;;;;;;;3.20;1.40;;;11.30;47.30;;;;;;215865;1293;23962;-57
2022/01/21 19:15:32;;;;;;;2.70;1.10;;;11.20;47.50;;;;;;215769;1293;23948;-58
2022/01/21 19:20:39;;;;;;;4.50;1.20;;;11.20;47.90;;;;;;215596;1293;25442;-58
2022/01/21 19:25:52;;;;;;;3.20;1.20;;;11.20;47.30;;;;;;215626;1293;24375;-56
2022/01/21 19:31:09;;;;;;;3.40;1.30;;;11.20;47.20;;;;;;215669;1293;25373;-55
2022/01/21 19:36:17;;;;;;;4.20;1.50;;;11.20;47.40;;;;;;215969;1293;25503;-57
2022/01/21 19:41:22;;;;;;;3.00;1.30;;;11.20;47.20;;;;;;216057;1293;22837;-57
2022/01/21 19:46:40;;;;;;;3.20;1.20;;;11.20;47.20;;;;;;215819;1293;22570;-55
2022/01/21 19:51:46;;;;;;;2.40;1.10;;;11.20;47.30;;;;;;215886;1293;24616;-55
2022/01/21 19:57:02;;;;;;;3.20;1.00;;;11.10;47.20;;;;;;215799;1293;22662;-54
2022/01/21 20:05:49;;;;;;;2.40;1.20;;;11.20;47.50;;;;;;215860;1293;22607;-56
2022/01/21 20:08:55;;;;;;;2.10;1.00;;;11.20;47.10;;;;;;215844;1293;24239;-54
2022/01/21 20:13:54;;;;;;;3.00;1.30;;;11.20;47.20;;;;;;215870;1293;22586;-54
2022/01/21 20:19:33;;;;;;;2.10;1.00;;;11.20;47.10;;;;;;215668;1293;23956;-54
2022/01/21 20:25:10;;;;;;;2.20;0.90;;;11.10;47.10;;;;;;215934;1293;22569;-56
2022/01/21 20:30:40;;;;;;;2.90;1.20;;;11.10;47.10;;;;;;215916;1293;25430;-53
2022/01/21 20:36:03;;;;;;;2.60;1.00;;;11.20;47.40;;;;;;215994;1293;22671;-57
2022/01/21 20:41:21;;;;;;;2.50;1.30;;;11.10;47.10;;;;;;215847;1293;24281;-57
2022/01/21 20:46:40;;;;;;;2.70;1.30;;;11.10;47.10;;;;;;215859;1292;22718;-56
2022/01/21 20:51:54;;;;;;;2.50;1.00;;;11.10;47.20;;;;;;216148;1293;22600;-56
2022/01/21 20:57:11;;;;;;;2.70;1.00;;;11.10;47.10;;;;;;216042;1293;22595;-57
2022/01/21 21:02:19;;;;;;;2.60;1.20;;;11.20;47.20;;;;;;215713;1292;24409;-55
2022/01/21 21:07:27;;;;;;;3.70;1.10;;;11.10;47.40;;;;;;215732;1293;23064;-56
2022/01/21 21:12:32;;;;;;;3.80;1.30;;;11.10;47.50;;;;;;215617;1293;22594;-54
2022/01/21 21:28:25;;;;;;;2.70;0.80;;;11.10;47.20;;;;;;215720;1293;25313;-56
2022/01/21 22:27:52;;;;;;;2.40;1.10;;;11.00;47.10;;;;;;215507;1293;22624;-55
2022/01/21 22:49:27;;;;;;;2.90;1.00;;;11.00;47.50;;;;;;215791;1293;24298;-56
2022/01/21 23:05:03;;;;;;;2.50;1.20;;;10.90;47.30;;;;;;215810;1294;25306;-55
2022/01/21 23:10:08;;;;;;;2.40;0.90;;;10.90;47.20;;;;;;215660;1293;26572;-54
2022/01/21 23:15:13;;;;;;;1.80;0.80;;;11.00;46.70;;;;;;215457;1293;22627;-55
2022/01/21 23:20:20;;;;;;;2.50;1.00;;;10.90;47.20;;;;;;215816;1293;25360;-54
2022/01/21 23:25:32;;;;;;;3.00;1.40;;;10.90;47.10;;;;;;215691;1293;22585;-56
2022/01/21 23:30:36;;;;;;;3.30;1.10;;;11.00;47.30;;;;;;216120;1293;22582;-56
2022/01/21 23:35:40;;;;;;;3.20;1.10;;;10.90;47.10;;;;;;215715;1293;22650;-56
2022/01/21 23:40:45;;;;;;;2.30;0.80;;;10.90;47.50;;;;;;215925;1293;22629;-55
2022/01/21 23:45:49;;;;;;;3.60;1.40;;;10.90;47.10;;;;;;216012;1293;22645;-57
2022/01/21 23:50:59;;;;;;;2.30;1.10;;;11.00;47.20;;;;;;216037;1293;22605;-53
2022/01/21 23:56:08;;;;;;;2.60;0.90;;;11.00;47.10;;;;;;215705;1293;22678;-55
